sensor_id;sensor_type;location;lat;lon;timestamp;pressure;altitude;pressure_sealevel;temperature;humidity
76050;BME280;64967;50.234;19.224;2023-02-28T00:01:19;99650.25;;;-0.48;64.62
76050;BME280;64967;50.234;19.224;2023-02-28T00:03:46;99654.09;;;-0.52;65.22
76050;BME280;64967;50.234;19.224;2023-02-28T00:06:14;99654.63;;;-0.47;64.23
76050;BME280;64967;50.234;19.224;2023-02-28T00:08:41;99654.72;;;-0.49;64.54
76050;BME280;64967;50.234;19.224;2023-02-28T00:11:10;99656.34;;;-0.46;63.02
76050;BME280;64967;50.234;19.224;2023-02-28T00:13:43;99659.00;;;-0.59;65.43
76050;BME280;64967;50.234;19.224;2023-02-28T00:16:19;99657.59;;;-0.64;66.15
76050;BME280;64967;50.234;19.224;2023-02-28T00:18:47;99653.69;;;-0.59;63.48
76050;BME280;64967;50.234;19.224;2023-02-28T00:21:15;99638.56;;;-0.71;64.10
76050;BME280;64967;50.234;19.224;2023-02-28T00:23:43;99653.69;;;-0.59;62.06
76050;BME280;64967;50.234;19.224;2023-02-28T00:26:10;99655.34;;;-0.58;62.92
76050;BME280;64967;50.234;19.224;2023-02-28T00:28:37;99648.78;;;-0.65;65.68
76050;BME280;64967;50.234;19.224;2023-02-28T00:31:04;99655.97;;;-0.79;66.46
76050;BME280;64967;50.234;19.224;2023-02-28T00:33:31;99648.75;;;-0.77;63.26
76050;BME280;64967;50.234;19.224;2023-02-28T00:36:03;99637.06;;;-0.87;65.13
76050;BME280;64967;50.234;19.224;2023-02-28T00:38:31;99660.09;;;-0.88;64.70
76050;BME280;64967;50.234;19.224;2023-02-28T00:40:58;99661.25;;;-0.92;66.75
76050;BME280;64967;50.234;19.224;2023-02-28T00:43:35;99660.81;;;-0.99;65.08
76050;BME280;64967;50.234;19.224;2023-02-28T00:46:03;99654.13;;;-1.04;64.79
76050;BME280;64967;50.234;19.224;2023-02-28T00:48:31;99658.13;;;-1.11;66.67
76050;BME280;64967;50.234;19.224;2023-02-28T00:50:58;99654.84;;;-1.15;65.65
76050;BME280;64967;50.234;19.224;2023-02-28T00:53:25;99664.59;;;-1.15;66.05
76050;BME280;64967;50.234;19.224;2023-02-28T00:55:53;99665.66;;;-1.18;66.64
76050;BME280;64967;50.234;19.224;2023-02-28T00:58:20;99632.03;;;-1.44;67.62
76050;BME280;64967;50.234;19.224;2023-02-28T01:00:47;99676.44;;;-1.21;69.59
76050;BME280;64967;50.234;19.224;2023-02-28T01:03:17;99676.66;;;-1.24;69.78
76050;BME280;64967;50.234;19.224;2023-02-28T01:05:45;99675.78;;;-1.37;67.92
76050;BME280;64967;50.234;19.224;2023-02-28T01:08:13;99633.63;;;-1.68;67.70
76050;BME280;64967;50.234;19.224;2023-02-28T01:10:41;99655.84;;;-1.57;68.41
76050;BME280;64967;50.234;19.224;2023-02-28T01:13:08;99675.50;;;-1.47;69.86
76050;BME280;64967;50.234;19.224;2023-02-28T01:15:35;99651.81;;;-1.62;72.84
76050;BME280;64967;50.234;19.224;2023-02-28T01:18:02;99665.41;;;-1.54;71.05
76050;BME280;64967;50.234;19.224;2023-02-28T01:20:29;99663.34;;;-1.63;70.62
76050;BME280;64967;50.234;19.224;2023-02-28T01:22:57;99666.94;;;-1.64;70.81
76050;BME280;64967;50.234;19.224;2023-02-28T01:25:24;99666.19;;;-1.66;70.05
76050;BME280;64967;50.234;19.224;2023-02-28T01:27:51;99664.88;;;-1.73;72.77
76050;BME280;64967;50.234;19.224;2023-02-28T01:30:18;99663.16;;;-1.74;73.44
76050;BME280;64967;50.234;19.224;2023-02-28T01:32:45;99661.75;;;-1.80;73.47
76050;BME280;64967;50.234;19.224;2023-02-28T01:35:12;99654.66;;;-1.80;71.44
76050;BME280;64967;50.234;19.224;2023-02-28T01:37:39;99647.13;;;-1.86;70.15
76050;BME280;64967;50.234;19.224;2023-02-28T01:40:07;99656.56;;;-1.82;71.39
76050;BME280;64967;50.234;19.224;2023-02-28T01:42:34;99661.09;;;-1.84;72.72
76050;BME280;64967;50.234;19.224;2023-02-28T01:45:18;99654.22;;;-1.86;73.08
76050;BME280;64967;50.234;19.224;2023-02-28T01:47:48;99652.78;;;-1.92;72.93
76050;BME280;64967;50.234;19.224;2023-02-28T01:50:20;99660.19;;;-1.97;72.79
76050;BME280;64967;50.234;19.224;2023-02-28T01:52:50;99658.69;;;-2.01;72.19
76050;BME280;64967;50.234;19.224;2023-02-28T01:55:20;99656.88;;;-2.14;73.17
76050;BME280;64967;50.234;19.224;2023-02-28T01:57:55;99658.50;;;-2.26;75.33
76050;BME280;64967;50.234;19.224;2023-02-28T02:00:26;99654.91;;;-2.25;75.99
76050;BME280;64967;50.234;19.224;2023-02-28T02:02:57;99657.94;;;-2.31;75.66
76050;BME280;64967;50.234;19.224;2023-02-28T02:05:28;99653.78;;;-2.35;76.47
76050;BME280;64967;50.234;19.224;2023-02-28T02:08:10;99635.44;;;-2.52;75.69
76050;BME280;64967;50.234;19.224;2023-02-28T02:10:56;99655.09;;;-2.42;75.49
76050;BME280;64967;50.234;19.224;2023-02-28T02:25:46;99634.84;;;-2.72;77.43
76050;BME280;64967;50.234;19.224;2023-02-28T02:34:39;99644.78;;;-2.75;80.07
76050;BME280;64967;50.234;19.224;2023-02-28T02:42:45;99638.97;;;-2.82;80.39
76050;BME280;64967;50.234;19.224;2023-02-28T02:45:34;99648.06;;;-2.86;79.52
76050;BME280;64967;50.234;19.224;2023-02-28T02:48:09;99643.69;;;-2.87;79.63
76050;BME280;64967;50.234;19.224;2023-02-28T02:50:51;99640.38;;;-2.90;78.94
76050;BME280;64967;50.234;19.224;2023-02-28T02:53:26;99628.28;;;-2.94;79.46
76050;BME280;64967;50.234;19.224;2023-02-28T02:55:58;99637.81;;;-2.92;79.44
76050;BME280;64967;50.234;19.224;2023-02-28T02:58:31;99630.00;;;-2.93;81.19
76050;BME280;64967;50.234;19.224;2023-02-28T03:01:01;99639.72;;;-2.94;80.84
76050;BME280;64967;50.234;19.224;2023-02-28T03:03:32;99640.47;;;-2.92;81.52
76050;BME280;64967;50.234;19.224;2023-02-28T03:06:01;99641.31;;;-2.91;81.01
76050;BME280;64967;50.234;19.224;2023-02-28T03:08:29;99651.06;;;-2.92;80.96
76050;BME280;64967;50.234;19.224;2023-02-28T03:11:03;99645.88;;;-2.93;81.08
76050;BME280;64967;50.234;19.224;2023-02-28T03:21:43;99652.84;;;-3.06;82.88
76050;BME280;64967;50.234;19.224;2023-02-28T03:24:19;99652.91;;;-3.08;82.10
76050;BME280;64967;50.234;19.224;2023-02-28T03:26:57;99652.41;;;-3.15;83.39
76050;BME280;64967;50.234;19.224;2023-02-28T03:29:28;99651.66;;;-3.17;82.77
76050;BME280;64967;50.234;19.224;2023-02-28T03:32:29;99657.03;;;-3.18;82.87
76050;BME280;64967;50.234;19.224;2023-02-28T03:35:14;99640.50;;;-3.22;84.05
76050;BME280;64967;50.234;19.224;2023-02-28T03:37:54;99656.94;;;-3.17;83.47
76050;BME280;64967;50.234;19.224;2023-02-28T03:40:25;99663.84;;;-3.14;83.48
76050;BME280;64967;50.234;19.224;2023-02-28T03:42:59;99657.69;;;-3.15;85.09
76050;BME280;64967;50.234;19.224;2023-02-28T03:45:33;99657.97;;;-3.19;84.68
76050;BME280;64967;50.234;19.224;2023-02-28T03:48:12;99657.03;;;-3.18;83.85
76050;BME280;64967;50.234;19.224;2023-02-28T03:50:42;99657.97;;;-3.19;85.56
76050;BME280;64967;50.234;19.224;2023-02-28T03:55:46;99669.31;;;-3.17;85.39
76050;BME280;64967;50.234;19.224;2023-02-28T04:00:55;99660.78;;;-3.22;85.55
76050;BME280;64967;50.234;19.224;2023-02-28T04:03:24;99672.41;;;-3.25;85.03
76050;BME280;64967;50.234;19.224;2023-02-28T04:05:55;99674.47;;;-3.30;85.03
76050;BME280;64967;50.234;19.224;2023-02-28T04:08:23;99670.78;;;-3.27;85.27
76050;BME280;64967;50.234;19.224;2023-02-28T04:11:01;99649.03;;;-3.32;85.52
76050;BME280;64967;50.234;19.224;2023-02-28T04:13:30;99676.25;;;-3.30;85.43
76050;BME280;64967;50.234;19.224;2023-02-28T04:15:57;99668.50;;;-3.33;86.06
76050;BME280;64967;50.234;19.224;2023-02-28T04:18:27;99673.03;;;-3.35;85.63
76050;BME280;64967;50.234;19.224;2023-02-28T04:20:54;99677.53;;;-3.37;85.96
76050;BME280;64967;50.234;19.224;2023-02-28T04:23:21;99680.16;;;-3.37;86.16
76050;BME280;64967;50.234;19.224;2023-02-28T04:25:48;99688.09;;;-3.37;86.72
76050;BME280;64967;50.234;19.224;2023-02-28T04:28:17;99683.00;;;-3.40;85.61
76050;BME280;64967;50.234;19.224;2023-02-28T04:30:44;99683.19;;;-3.43;85.67
76050;BME280;64967;50.234;19.224;2023-02-28T04:33:11;99682.06;;;-3.55;86.12
76050;BME280;64967;50.234;19.224;2023-02-28T04:35:38;99671.94;;;-3.63;86.76
76050;BME280;64967;50.234;19.224;2023-02-28T04:38:05;99701.28;;;-3.51;86.93
76050;BME280;64967;50.234;19.224;2023-02-28T04:40:32;99701.34;;;-3.53;86.14
76050;BME280;64967;50.234;19.224;2023-02-28T04:42:59;99705.00;;;-3.55;86.86
76050;BME280;64967;50.234;19.224;2023-02-28T04:45:26;99694.44;;;-3.55;87.03
76050;BME280;64967;50.234;19.224;2023-02-28T04:47:56;99703.13;;;-3.53;87.57
76050;BME280;64967;50.234;19.224;2023-02-28T04:50:23;99699.38;;;-3.49;87.21
76050;BME280;64967;50.234;19.224;2023-02-28T04:52:50;99702.88;;;-3.49;87.64
76050;BME280;64967;50.234;19.224;2023-02-28T04:55:18;99684.97;;;-3.60;86.98
76050;BME280;64967;50.234;19.224;2023-02-28T04:57:45;99702.09;;;-3.51;87.17
76050;BME280;64967;50.234;19.224;2023-02-28T05:00:12;99694.94;;;-3.49;88.46
76050;BME280;64967;50.234;19.224;2023-02-28T05:02:42;99707.38;;;-3.51;87.67
76050;BME280;64967;50.234;19.224;2023-02-28T05:05:09;99700.41;;;-3.52;87.71
76050;BME280;64967;50.234;19.224;2023-02-28T05:07:36;99699.72;;;-3.55;87.07
76050;BME280;64967;50.234;19.224;2023-02-28T05:10:03;99701.44;;;-3.54;87.35
76050;BME280;64967;50.234;19.224;2023-02-28T05:12:31;99702.63;;;-3.60;88.23
76050;BME280;64967;50.234;19.224;2023-02-28T05:14:58;99701.00;;;-3.63;88.07
76050;BME280;64967;50.234;19.224;2023-02-28T05:17:25;99701.94;;;-3.64;88.85
76050;BME280;64967;50.234;19.224;2023-02-28T05:19:52;99699.47;;;-3.67;88.88
76050;BME280;64967;50.234;19.224;2023-02-28T05:22:26;99703.06;;;-3.68;89.35
76050;BME280;64967;50.234;19.224;2023-02-28T05:24:53;99701.34;;;-3.69;89.14
76050;BME280;64967;50.234;19.224;2023-02-28T05:27:20;99703.97;;;-3.69;89.20
76050;BME280;64967;50.234;19.224;2023-02-28T05:29:47;99713.03;;;-3.73;88.44
76050;BME280;64967;50.234;19.224;2023-02-28T05:32:14;99714.06;;;-3.75;88.71
76050;BME280;64967;50.234;19.224;2023-02-28T05:34:41;99704.66;;;-3.81;88.96
76050;BME280;64967;50.234;19.224;2023-02-28T05:37:12;99712.41;;;-3.78;90.23
76050;BME280;64967;50.234;19.224;2023-02-28T05:39:39;99722.91;;;-3.76;89.73
76050;BME280;64967;50.234;19.224;2023-02-28T05:42:06;99714.56;;;-3.84;89.15
76050;BME280;64967;50.234;19.224;2023-02-28T05:44:34;99723.78;;;-3.76;89.23
76050;BME280;64967;50.234;19.224;2023-02-28T05:47:01;99729.22;;;-3.79;88.76
76050;BME280;64967;50.234;19.224;2023-02-28T05:49:28;99727.59;;;-3.81;90.31
76050;BME280;64967;50.234;19.224;2023-02-28T05:51:54;99736.19;;;-3.78;89.43
76050;BME280;64967;50.234;19.224;2023-02-28T05:54:21;99736.56;;;-3.84;90.03
76050;BME280;64967;50.234;19.224;2023-02-28T05:56:49;99743.44;;;-3.81;89.46
76050;BME280;64967;50.234;19.224;2023-02-28T05:59:15;99740.91;;;-3.83;89.37
76050;BME280;64967;50.234;19.224;2023-02-28T06:01:44;99740.91;;;-3.83;90.23
76050;BME280;64967;50.234;19.224;2023-02-28T06:04:17;99741.47;;;-3.78;90.38
76050;BME280;64967;50.234;19.224;2023-02-28T06:06:57;99747.63;;;-3.77;90.17
76050;BME280;64967;50.234;19.224;2023-02-28T06:09:24;99744.13;;;-3.78;89.91
76050;BME280;64967;50.234;19.224;2023-02-28T06:11:51;99741.47;;;-3.78;89.65
76050;BME280;64967;50.234;19.224;2023-02-28T06:14:19;99749.34;;;-3.76;90.00
76050;BME280;64967;50.234;19.224;2023-02-28T06:16:47;99743.44;;;-3.81;89.10
76050;BME280;64967;50.234;19.224;2023-02-28T06:19:14;99747.78;;;-3.80;90.06
76050;BME280;64967;50.234;19.224;2023-02-28T06:21:42;99758.53;;;-3.68;89.34
76050;BME280;64967;50.234;19.224;2023-02-28T06:24:09;99760.94;;;-3.63;89.17
76050;BME280;64967;50.234;19.224;2023-02-28T06:26:36;99760.63;;;-3.57;89.47
76050;BME280;64967;50.234;19.224;2023-02-28T06:29:03;99747.28;;;-3.71;89.42
76050;BME280;64967;50.234;19.224;2023-02-28T06:31:30;99763.59;;;-3.47;89.95
76050;BME280;64967;50.234;19.224;2023-02-28T06:33:58;99765.75;;;-3.38;88.94
76050;BME280;64967;50.234;19.224;2023-02-28T06:36:25;99767.16;;;-3.33;88.74
76050;BME280;64967;50.234;19.224;2023-02-28T06:38:52;99769.66;;;-3.30;88.74
76050;BME280;64967;50.234;19.224;2023-02-28T06:41:25;99772.72;;;-3.22;88.25
76050;BME280;64967;50.234;19.224;2023-02-28T06:43:54;99765.53;;;-3.20;88.34
76050;BME280;64967;50.234;19.224;2023-02-28T06:46:21;99765.19;;;-3.13;86.79
76050;BME280;64967;50.234;19.224;2023-02-28T06:48:49;99751.03;;;-3.12;88.46
76050;BME280;64967;50.234;19.224;2023-02-28T06:51:18;99768.59;;;-2.96;86.46
76050;BME280;64967;50.234;19.224;2023-02-28T06:53:51;99761.44;;;-2.94;86.84
76050;BME280;64967;50.234;19.224;2023-02-28T06:56:18;99768.25;;;-2.90;86.68
76050;BME280;64967;50.234;19.224;2023-02-28T06:58:48;99774.47;;;-2.91;85.51
76050;BME280;64967;50.234;19.224;2023-02-28T07:01:15;99772.91;;;-2.79;86.42
76050;BME280;64967;50.234;19.224;2023-02-28T07:03:43;99777.94;;;-2.75;85.84
76050;BME280;64967;50.234;19.224;2023-02-28T07:06:10;99775.88;;;-2.70;85.39
76050;BME280;64967;50.234;19.224;2023-02-28T07:08:37;99785.44;;;-2.67;85.43
76050;BME280;64967;50.234;19.224;2023-02-28T07:11:04;99782.84;;;-2.53;84.96
76050;BME280;64967;50.234;19.224;2023-02-28T07:13:31;99781.25;;;-2.41;83.52
76050;BME280;64967;50.234;19.224;2023-02-28T07:16:00;99759.41;;;-2.45;83.54
76050;BME280;64967;50.234;19.224;2023-02-28T07:18:28;99768.13;;;-2.29;82.24
76050;BME280;64967;50.234;19.224;2023-02-28T07:20:55;99787.56;;;-2.14;81.59
76050;BME280;64967;50.234;19.224;2023-02-28T07:23:22;99788.13;;;-2.09;81.14
76050;BME280;64967;50.234;19.224;2023-02-28T07:25:50;99788.25;;;-1.96;81.92
76050;BME280;64967;50.234;19.224;2023-02-28T07:28:17;99781.53;;;-1.88;80.50
76050;BME280;64967;50.234;19.224;2023-02-28T07:30:45;99732.28;;;-2.20;80.38
76050;BME280;64967;50.234;19.224;2023-02-28T07:33:12;99788.25;;;-1.82;80.11
76050;BME280;64967;50.234;19.224;2023-02-28T07:35:38;99791.09;;;-1.85;77.40
76050;BME280;64967;50.234;19.224;2023-02-28T07:38:06;99784.25;;;-1.75;78.27
76050;BME280;64967;50.234;19.224;2023-02-28T07:40:34;99788.91;;;-1.64;77.87
76050;BME280;64967;50.234;19.224;2023-02-28T07:43:04;99755.66;;;-1.84;77.92
76050;BME280;64967;50.234;19.224;2023-02-28T07:45:32;99776.59;;;-1.65;77.22
76050;BME280;64967;50.234;19.224;2023-02-28T07:48:01;99799.16;;;-1.58;76.04
76050;BME280;64967;50.234;19.224;2023-02-28T07:50:28;99791.28;;;-1.60;76.81
76050;BME280;64967;50.234;19.224;2023-02-28T07:52:58;99776.44;;;-1.76;76.61
76050;BME280;64967;50.234;19.224;2023-02-28T07:55:25;99788.13;;;-1.66;76.42
76050;BME280;64967;50.234;19.224;2023-02-28T07:57:53;99791.84;;;-1.69;75.90
76050;BME280;64967;50.234;19.224;2023-02-28T08:00:20;99796.78;;;-1.63;75.72
76050;BME280;64967;50.234;19.224;2023-02-28T08:02:48;99794.00;;;-1.61;74.42
76050;BME280;64967;50.234;19.224;2023-02-28T08:05:15;99797.59;;;-1.48;75.08
76050;BME280;64967;50.234;19.224;2023-02-28T08:07:42;99796.28;;;-1.55;75.71
76050;BME280;64967;50.234;19.224;2023-02-28T08:10:10;99791.19;;;-1.44;75.88
76050;BME280;64967;50.234;19.224;2023-02-28T08:12:37;99785.25;;;-1.35;75.32
76050;BME280;64967;50.234;19.224;2023-02-28T08:15:04;99784.59;;;-1.24;73.35
76050;BME280;64967;50.234;19.224;2023-02-28T08:17:31;99779.38;;;-1.26;73.55
76050;BME280;64967;50.234;19.224;2023-02-28T08:20:00;99785.41;;;-1.10;73.16
76050;BME280;64967;50.234;19.224;2023-02-28T08:22:27;99792.22;;;-1.06;74.45
76050;BME280;64967;50.234;19.224;2023-02-28T08:24:54;99791.25;;;-0.91;71.67
76050;BME280;64967;50.234;19.224;2023-02-28T08:27:21;99795.19;;;-0.83;71.22
76050;BME280;64967;50.234;19.224;2023-02-28T08:29:48;99792.31;;;-0.80;70.93
76050;BME280;64967;50.234;19.224;2023-02-28T08:32:15;99787.22;;;-0.83;69.69
76050;BME280;64967;50.234;19.224;2023-02-28T08:34:55;99790.72;;;-0.83;69.79
76050;BME280;64967;50.234;19.224;2023-02-28T08:37:22;99787.41;;;-0.60;69.68
76050;BME280;64967;50.234;19.224;2023-02-28T08:39:49;99788.41;;;-0.48;67.78
76050;BME280;64967;50.234;19.224;2023-02-28T08:42:16;99787.22;;;-0.57;67.61
76050;BME280;64967;50.234;19.224;2023-02-28T08:44:43;99796.88;;;-0.56;67.68
76050;BME280;64967;50.234;19.224;2023-02-28T08:47:10;99789.66;;;-0.54;66.95
76050;BME280;64967;50.234;19.224;2023-02-28T08:49:37;99786.81;;;-0.51;66.69
76050;BME280;64967;50.234;19.224;2023-02-28T08:52:04;99791.59;;;-0.43;65.12
76050;BME280;64967;50.234;19.224;2023-02-28T08:54:31;99796.50;;;-0.50;63.56
76050;BME280;64967;50.234;19.224;2023-02-28T08:56:59;99785.66;;;-0.34;64.44
76050;BME280;64967;50.234;19.224;2023-02-28T08:59:28;99794.88;;;0.00;65.85
76050;BME280;64967;50.234;19.224;2023-02-28T09:01:55;99795.50;;;0.04;63.94
76050;BME280;64967;50.234;19.224;2023-02-28T09:04:22;99802.50;;;0.05;62.99
76050;BME280;64967;50.234;19.224;2023-02-28T09:06:50;99793.06;;;0.26;63.59
76050;BME280;64967;50.234;19.224;2023-02-28T09:09:17;99803.34;;;0.56;62.91
76050;BME280;64967;50.234;19.224;2023-02-28T09:11:44;99801.16;;;0.73;63.17
76050;BME280;64967;50.234;19.224;2023-02-28T09:14:11;99795.03;;;0.97;60.29
76050;BME280;64967;50.234;19.224;2023-02-28T09:16:38;99801.47;;;0.94;60.45
76050;BME280;64967;50.234;19.224;2023-02-28T09:19:11;99791.38;;;0.74;62.28
76050;BME280;64967;50.234;19.224;2023-02-28T09:21:38;99796.31;;;0.67;60.20
76050;BME280;64967;50.234;19.224;2023-02-28T09:24:06;99797.56;;;0.74;60.03
76050;BME280;64967;50.234;19.224;2023-02-28T09:26:33;99806.50;;;0.73;59.72
76050;BME280;64967;50.234;19.224;2023-02-28T09:29:08;99800.28;;;0.98;60.15
76050;BME280;64967;50.234;19.224;2023-02-28T09:31:35;99798.59;;;0.84;60.01
76050;BME280;64967;50.234;19.224;2023-02-28T09:34:04;99792.28;;;0.36;61.86
76050;BME280;64967;50.234;19.224;2023-02-28T09:36:31;99790.81;;;0.20;61.18
76050;BME280;64967;50.234;19.224;2023-02-28T09:39:11;99796.31;;;0.42;61.76
76050;BME280;64967;50.234;19.224;2023-02-28T09:41:42;99790.59;;;0.35;63.00
76050;BME280;64967;50.234;19.224;2023-02-28T09:44:40;99798.91;;;0.31;61.68
76050;BME280;64967;50.234;19.224;2023-02-28T09:47:32;99801.22;;;0.48;63.70
76050;BME280;64967;50.234;19.224;2023-02-28T09:50:33;99808.03;;;0.52;62.66
76050;BME280;64967;50.234;19.224;2023-02-28T09:53:09;99793.00;;;0.76;60.98
76050;BME280;64967;50.234;19.224;2023-02-28T09:55:52;99809.09;;;0.62;60.37
76050;BME280;64967;50.234;19.224;2023-02-28T10:01:27;99802.84;;;0.87;59.66
76050;BME280;64967;50.234;19.224;2023-02-28T10:06:39;99798.53;;;1.33;57.93
76050;BME280;64967;50.234;19.224;2023-02-28T10:09:13;99802.31;;;1.66;58.23
76050;BME280;64967;50.234;19.224;2023-02-28T10:11:44;99784.63;;;1.65;57.02
76050;BME280;64967;50.234;19.224;2023-02-28T10:14:16;99794.66;;;1.96;54.85
76050;BME280;64967;50.234;19.224;2023-02-28T10:17:15;99801.13;;;2.16;56.05
76050;BME280;64967;50.234;19.224;2023-02-28T10:19:59;99793.78;;;1.96;54.94
76050;BME280;64967;50.234;19.224;2023-02-28T10:25:21;99784.00;;;2.85;55.42
76050;BME280;64967;50.234;19.224;2023-02-28T10:27:52;99773.19;;;2.98;55.51
76050;BME280;64967;50.234;19.224;2023-02-28T10:30:20;99769.16;;;3.14;53.60
76050;BME280;64967;50.234;19.224;2023-02-28T10:32:52;99751.88;;;2.64;53.15
76050;BME280;64967;50.234;19.224;2023-02-28T10:35:24;99771.03;;;2.81;55.20
76050;BME280;64967;50.234;19.224;2023-02-28T10:38:00;99764.69;;;2.93;53.44
76050;BME280;64967;50.234;19.224;2023-02-28T10:40:36;99772.63;;;2.28;54.51
76050;BME280;64967;50.234;19.224;2023-02-28T10:45:53;99768.59;;;2.22;54.53
76050;BME280;64967;50.234;19.224;2023-02-28T10:56:24;99764.44;;;1.85;56.52
76050;BME280;64967;50.234;19.224;2023-02-28T10:59:01;99754.94;;;1.80;54.81
76050;BME280;64967;50.234;19.224;2023-02-28T11:01:45;99754.47;;;1.75;57.10
76050;BME280;64967;50.234;19.224;2023-02-28T11:07:00;99749.69;;;1.57;55.45
76050;BME280;64967;50.234;19.224;2023-02-28T11:12:07;99736.66;;;1.41;60.49
76050;BME280;64967;50.234;19.224;2023-02-28T11:15:03;99746.25;;;1.90;57.06
76050;BME280;64967;50.234;19.224;2023-02-28T11:17:32;99726.47;;;1.81;57.53
76050;BME280;64967;50.234;19.224;2023-02-28T11:20:04;99740.19;;;1.99;58.90
76050;BME280;64967;50.234;19.224;2023-02-28T11:22:37;99716.44;;;1.96;57.71
76050;BME280;64967;50.234;19.224;2023-02-28T11:25:29;99733.44;;;2.06;54.71
76050;BME280;64967;50.234;19.224;2023-02-28T11:27:59;99729.69;;;2.31;55.34
76050;BME280;64967;50.234;19.224;2023-02-28T11:30:38;99727.38;;;2.26;55.34
76050;BME280;64967;50.234;19.224;2023-02-28T11:33:30;99722.03;;;2.48;54.09
76050;BME280;64967;50.234;19.224;2023-02-28T11:36:03;99727.00;;;2.31;52.93
76050;BME280;64967;50.234;19.224;2023-02-28T11:38:34;99716.34;;;2.42;54.31
76050;BME280;64967;50.234;19.224;2023-02-28T11:46:37;99704.09;;;2.28;55.05
76050;BME280;64967;50.234;19.224;2023-02-28T11:54:41;99699.72;;;2.38;53.61
76050;BME280;64967;50.234;19.224;2023-02-28T12:03:06;99696.78;;;2.52;54.71
76050;BME280;64967;50.234;19.224;2023-02-28T12:05:45;99686.91;;;2.75;53.31
76050;BME280;64967;50.234;19.224;2023-02-28T12:08:18;99681.94;;;2.70;52.50
76050;BME280;64967;50.234;19.224;2023-02-28T12:13:41;99689.00;;;2.72;52.87
76050;BME280;64967;50.234;19.224;2023-02-28T12:24:29;99690.06;;;3.12;52.66
76050;BME280;64967;50.234;19.224;2023-02-28T12:27:02;99684.72;;;3.12;52.63
76050;BME280;64967;50.234;19.224;2023-02-28T12:29:34;99678.06;;;3.06;51.98
76050;BME280;64967;50.234;19.224;2023-02-28T12:32:20;99687.41;;;3.12;55.01
76050;BME280;64967;50.234;19.224;2023-02-28T12:35:13;99683.19;;;2.98;54.33
76050;BME280;64967;50.234;19.224;2023-02-28T12:37:43;99691.03;;;3.11;53.49
76050;BME280;64967;50.234;19.224;2023-02-28T12:40:20;99680.41;;;3.00;55.46
76050;BME280;64967;50.234;19.224;2023-02-28T12:42:52;99674.91;;;3.12;55.09
76050;BME280;64967;50.234;19.224;2023-02-28T12:45:46;99670.41;;;3.13;53.81
76050;BME280;64967;50.234;19.224;2023-02-28T12:48:20;99672.88;;;3.26;53.18
76050;BME280;64967;50.234;19.224;2023-02-28T12:50:51;99680.03;;;3.36;51.47
76050;BME280;64967;50.234;19.224;2023-02-28T12:53:43;99675.31;;;3.29;51.93
76050;BME280;64967;50.234;19.224;2023-02-28T12:58:54;99665.22;;;3.32;49.95
76050;BME280;64967;50.234;19.224;2023-02-28T13:10:04;99658.22;;;3.62;52.46
76050;BME280;64967;50.234;19.224;2023-02-28T13:12:35;99664.09;;;3.76;51.30
76050;BME280;64967;50.234;19.224;2023-02-28T13:17:53;99664.03;;;3.67;49.17
76050;BME280;64967;50.234;19.224;2023-02-28T13:20:25;99667.03;;;3.52;52.69
76050;BME280;64967;50.234;19.224;2023-02-28T13:22:54;99659.41;;;3.27;51.98
76050;BME280;64967;50.234;19.224;2023-02-28T13:27:55;99665.84;;;3.25;51.76
76050;BME280;64967;50.234;19.224;2023-02-28T13:33:32;99659.28;;;3.29;50.03
76050;BME280;64967;50.234;19.224;2023-02-28T13:38:47;99650.16;;;3.10;52.39
76050;BME280;64967;50.234;19.224;2023-02-28T14:05:23;99642.41;;;3.28;50.72
76050;BME280;64967;50.234;19.224;2023-02-28T14:07:56;99632.72;;;3.16;51.64
76050;BME280;64967;50.234;19.224;2023-02-28T14:10:41;99617.34;;;3.29;50.47
76050;BME280;64967;50.234;19.224;2023-02-28T14:15:48;99626.38;;;3.28;53.30
76050;BME280;64967;50.234;19.224;2023-02-28T14:20:47;99629.09;;;3.17;52.46
76050;BME280;64967;50.234;19.224;2023-02-28T14:23:43;99627.38;;;3.16;51.56
76050;BME280;64967;50.234;19.224;2023-02-28T14:32:26;99616.25;;;3.32;50.23
76050;BME280;64967;50.234;19.224;2023-02-28T14:34:54;99614.81;;;3.28;49.55
76050;BME280;64967;50.234;19.224;2023-02-28T14:37:33;99615.84;;;3.15;50.88
76050;BME280;64967;50.234;19.224;2023-02-28T14:40:04;99619.69;;;3.02;52.71
76050;BME280;64967;50.234;19.224;2023-02-28T14:42:38;99612.03;;;2.97;51.35
76050;BME280;64967;50.234;19.224;2023-02-28T14:45:20;99614.34;;;3.02;51.27
76050;BME280;64967;50.234;19.224;2023-02-28T14:47:50;99610.22;;;2.98;51.98
76050;BME280;64967;50.234;19.224;2023-02-28T14:50:21;99606.28;;;2.92;52.63
76050;BME280;64967;50.234;19.224;2023-02-28T14:52:52;99611.91;;;2.78;51.48
76050;BME280;64967;50.234;19.224;2023-02-28T14:55:24;99618.53;;;2.84;52.43
76050;BME280;64967;50.234;19.224;2023-02-28T14:57:57;99617.25;;;2.78;53.45
76050;BME280;64967;50.234;19.224;2023-02-28T15:02:54;99620.28;;;2.74;52.10
76050;BME280;64967;50.234;19.224;2023-02-28T15:05:33;99612.66;;;2.69;51.70
76050;BME280;64967;50.234;19.224;2023-02-28T15:08:15;99624.00;;;2.50;53.73
76050;BME280;64967;50.234;19.224;2023-02-28T15:10:44;99620.84;;;2.56;54.78
76050;BME280;64967;50.234;19.224;2023-02-28T15:13:14;99617.06;;;2.59;55.38
76050;BME280;64967;50.234;19.224;2023-02-28T15:15:51;99619.88;;;2.46;54.02
76050;BME280;64967;50.234;19.224;2023-02-28T15:21:13;99617.50;;;2.21;56.17
76050;BME280;64967;50.234;19.224;2023-02-28T15:23:46;99628.91;;;2.12;55.39
76050;BME280;64967;50.234;19.224;2023-02-28T15:26:20;99605.28;;;1.96;55.47
76050;BME280;64967;50.234;19.224;2023-02-28T15:28:57;99622.00;;;1.98;56.69
76050;BME280;64967;50.234;19.224;2023-02-28T15:31:32;99624.22;;;1.93;57.07
76050;BME280;64967;50.234;19.224;2023-02-28T15:34:37;99621.28;;;1.85;59.09
76050;BME280;64967;50.234;19.224;2023-02-28T15:37:45;99624.44;;;1.79;56.75
76050;BME280;64967;50.234;19.224;2023-02-28T15:40:17;99624.31;;;1.80;59.11
76050;BME280;64967;50.234;19.224;2023-02-28T15:43:14;99628.19;;;1.76;58.62
76050;BME280;64967;50.234;19.224;2023-02-28T15:45:48;99626.75;;;1.84;58.10
76050;BME280;64967;50.234;19.224;2023-02-28T15:48:28;99624.31;;;1.80;57.32